sensor_id;sensor_type;location;lat;lon;timestamp;P1;durP1;ratioP1;P2;durP2;ratioP2
13234;SDS011;6683;48.506;9.050;2023-04-22T00:00:50;2.17;;;1.50;;
13234;SDS011;6683;48.506;9.050;2023-04-22T00:03:55;2.07;;;1.30;;
13234;SDS011;6683;48.506;9.050;2023-04-22T00:06:58;2.03;;;1.40;;
13234;SDS011;6683;48.506;9.050;2023-04-22T00:10:01;1.40;;;1.30;;
13234;SDS011;6683;48.506;9.050;2023-04-22T00:13:04;1.67;;;1.40;;
13234;SDS011;6683;48.506;9.050;2023-04-22T00:16:06;1.60;;;1.50;;
13234;SDS011;6683;48.506;9.050;2023-04-22T00:19:10;1.50;;;1.37;;
13234;SDS011;6683;48.506;9.050;2023-04-22T00:22:12;1.93;;;1.30;;
13234;SDS011;6683;48.506;9.050;2023-04-22T00:25:15;1.63;;;1.30;;
13234;SDS011;6683;48.506;9.050;2023-04-22T00:28:18;2.03;;;1.40;;
13234;SDS011;6683;48.506;9.050;2023-04-22T00:31:21;1.57;;;1.40;;
13234;SDS011;6683;48.506;9.050;2023-04-22T00:34:25;2.80;;;1.60;;
13234;SDS011;6683;48.506;9.050;2023-04-22T00:37:27;1.73;;;1.40;;
13234;SDS011;6683;48.506;9.050;2023-04-22T00:40:29;1.80;;;1.40;;
13234;SDS011;6683;48.506;9.050;2023-04-22T00:43:32;1.30;;;1.20;;
13234;SDS011;6683;48.506;9.050;2023-04-22T00:46:34;1.37;;;1.27;;
13234;SDS011;6683;48.506;9.050;2023-04-22T00:49:40;1.63;;;1.40;;
13234;SDS011;6683;48.506;9.050;2023-04-22T00:52:43;2.03;;;1.63;;
13234;SDS011;6683;48.506;9.050;2023-04-22T00:55:45;1.37;;;1.27;;
13234;SDS011;6683;48.506;9.050;2023-04-22T00:58:48;3.00;;;1.37;;
13234;SDS011;6683;48.506;9.050;2023-04-22T01:01:50;3.10;;;1.60;;
13234;SDS011;6683;48.506;9.050;2023-04-22T01:04:55;1.90;;;1.70;;
13234;SDS011;6683;48.506;9.050;2023-04-22T01:07:58;2.10;;;1.70;;
13234;SDS011;6683;48.506;9.050;2023-04-22T01:11:01;1.80;;;1.70;;
13234;SDS011;6683;48.506;9.050;2023-04-22T01:14:04;2.17;;;1.90;;
13234;SDS011;6683;48.506;9.050;2023-04-22T01:17:07;1.80;;;1.70;;
13234;SDS011;6683;48.506;9.050;2023-04-22T01:20:13;1.70;;;1.60;;
13234;SDS011;6683;48.506;9.050;2023-04-22T01:23:18;2.60;;;2.13;;
13234;SDS011;6683;48.506;9.050;2023-04-22T01:26:21;1.73;;;1.63;;
13234;SDS011;6683;48.506;9.050;2023-04-22T01:29:23;1.80;;;1.70;;
13234;SDS011;6683;48.506;9.050;2023-04-22T01:32:26;1.97;;;1.77;;
13234;SDS011;6683;48.506;9.050;2023-04-22T01:35:30;2.20;;;1.83;;
13234;SDS011;6683;48.506;9.050;2023-04-22T01:38:37;2.17;;;1.70;;
13234;SDS011;6683;48.506;9.050;2023-04-22T01:41:40;2.10;;;1.90;;
13234;SDS011;6683;48.506;9.050;2023-04-22T01:44:43;2.23;;;1.67;;
13234;SDS011;6683;48.506;9.050;2023-04-22T01:47:45;2.27;;;1.90;;
13234;SDS011;6683;48.506;9.050;2023-04-22T01:50:48;2.37;;;2.00;;
13234;SDS011;6683;48.506;9.050;2023-04-22T01:53:52;3.03;;;1.63;;
13234;SDS011;6683;48.506;9.050;2023-04-22T01:56:55;2.13;;;1.90;;
13234;SDS011;6683;48.506;9.050;2023-04-22T01:59:58;2.07;;;1.87;;
13234;SDS011;6683;48.506;9.050;2023-04-22T02:03:00;2.40;;;2.00;;
13234;SDS011;6683;48.506;9.050;2023-04-22T02:06:02;2.90;;;1.77;;
13234;SDS011;6683;48.506;9.050;2023-04-22T02:09:08;2.43;;;1.90;;
13234;SDS011;6683;48.506;9.050;2023-04-22T02:12:10;2.30;;;1.80;;
13234;SDS011;6683;48.506;9.050;2023-04-22T02:15:13;1.80;;;1.70;;
13234;SDS011;6683;48.506;9.050;2023-04-22T02:18:16;2.60;;;2.20;;
13234;SDS011;6683;48.506;9.050;2023-04-22T02:21:19;2.73;;;2.30;;
13234;SDS011;6683;48.506;9.050;2023-04-22T02:24:23;2.00;;;1.90;;
13234;SDS011;6683;48.506;9.050;2023-04-22T02:27:26;3.40;;;1.90;;
13234;SDS011;6683;48.506;9.050;2023-04-22T02:30:28;3.40;;;2.20;;
13234;SDS011;6683;48.506;9.050;2023-04-22T02:33:30;3.20;;;2.40;;
13234;SDS011;6683;48.506;9.050;2023-04-22T02:36:33;3.00;;;1.97;;
13234;SDS011;6683;48.506;9.050;2023-04-22T02:39:37;2.10;;;1.80;;
13234;SDS011;6683;48.506;9.050;2023-04-22T02:42:39;3.20;;;2.10;;
13234;SDS011;6683;48.506;9.050;2023-04-22T02:45:42;1.80;;;1.70;;
13234;SDS011;6683;48.506;9.050;2023-04-22T02:48:45;1.83;;;1.73;;
13234;SDS011;6683;48.506;9.050;2023-04-22T02:51:48;2.07;;;1.93;;
13234;SDS011;6683;48.506;9.050;2023-04-22T02:54:51;2.27;;;2.03;;
13234;SDS011;6683;48.506;9.050;2023-04-22T02:57:54;2.20;;;2.00;;
13234;SDS011;6683;48.506;9.050;2023-04-22T03:00:57;2.70;;;2.10;;
13234;SDS011;6683;48.506;9.050;2023-04-22T03:03:59;2.23;;;1.87;;
13234;SDS011;6683;48.506;9.050;2023-04-22T03:07:02;3.70;;;2.33;;
13234;SDS011;6683;48.506;9.050;2023-04-22T03:10:08;2.37;;;2.17;;
13234;SDS011;6683;48.506;9.050;2023-04-22T03:13:11;2.77;;;2.50;;
13234;SDS011;6683;48.506;9.050;2023-04-22T03:16:15;2.37;;;1.97;;
13234;SDS011;6683;48.506;9.050;2023-04-22T03:19:17;2.87;;;2.30;;
13234;SDS011;6683;48.506;9.050;2023-04-22T03:22:20;2.77;;;2.13;;
13234;SDS011;6683;48.506;9.050;2023-04-22T03:25:24;3.47;;;2.23;;
13234;SDS011;6683;48.506;9.050;2023-04-22T03:28:27;2.50;;;2.30;;
13234;SDS011;6683;48.506;9.050;2023-04-22T03:31:29;2.70;;;2.33;;
13234;SDS011;6683;48.506;9.050;2023-04-22T03:34:31;3.10;;;2.40;;
13234;SDS011;6683;48.506;9.050;2023-04-22T03:37:34;4.47;;;2.43;;
13234;SDS011;6683;48.506;9.050;2023-04-22T03:40:38;3.33;;;2.90;;
13234;SDS011;6683;48.506;9.050;2023-04-22T03:43:40;4.03;;;2.60;;
13234;SDS011;6683;48.506;9.050;2023-04-22T03:46:43;2.53;;;2.33;;
13234;SDS011;6683;48.506;9.050;2023-04-22T03:49:45;2.63;;;2.43;;
13234;SDS011;6683;48.506;9.050;2023-04-22T03:52:48;2.60;;;2.40;;
13234;SDS011;6683;48.506;9.050;2023-04-22T03:55:52;2.50;;;2.13;;
13234;SDS011;6683;48.506;9.050;2023-04-22T03:58:54;2.83;;;2.63;;
13234;SDS011;6683;48.506;9.050;2023-04-22T04:01:57;2.43;;;2.23;;
13234;SDS011;6683;48.506;9.050;2023-04-22T04:04:59;3.60;;;2.20;;
13234;SDS011;6683;48.506;9.050;2023-04-22T04:08:02;2.80;;;2.60;;
13234;SDS011;6683;48.506;9.050;2023-04-22T04:11:07;2.77;;;2.20;;
13234;SDS011;6683;48.506;9.050;2023-04-22T04:14:10;2.57;;;2.27;;
13234;SDS011;6683;48.506;9.050;2023-04-22T04:17:13;3.17;;;2.63;;
13234;SDS011;6683;48.506;9.050;2023-04-22T04:20:16;3.43;;;2.30;;
13234;SDS011;6683;48.506;9.050;2023-04-22T04:23:19;3.63;;;2.43;;
13234;SDS011;6683;48.506;9.050;2023-04-22T04:26:23;2.60;;;2.40;;
13234;SDS011;6683;48.506;9.050;2023-04-22T04:29:26;2.90;;;2.33;;
13234;SDS011;6683;48.506;9.050;2023-04-22T04:32:29;2.97;;;2.23;;
13234;SDS011;6683;48.506;9.050;2023-04-22T04:35:33;3.20;;;2.10;;
13234;SDS011;6683;48.506;9.050;2023-04-22T04:38:36;3.10;;;2.27;;
13234;SDS011;6683;48.506;9.050;2023-04-22T04:41:41;2.90;;;2.33;;
13234;SDS011;6683;48.506;9.050;2023-04-22T04:44:44;2.80;;;2.13;;
13234;SDS011;6683;48.506;9.050;2023-04-22T04:47:47;2.80;;;2.43;;
13234;SDS011;6683;48.506;9.050;2023-04-22T04:50:51;2.80;;;2.50;;
13234;SDS011;6683;48.506;9.050;2023-04-22T04:53:54;4.00;;;2.60;;
13234;SDS011;6683;48.506;9.050;2023-04-22T04:56:58;2.53;;;2.33;;
13234;SDS011;6683;48.506;9.050;2023-04-22T05:00:00;3.10;;;2.70;;
13234;SDS011;6683;48.506;9.050;2023-04-22T05:03:04;3.13;;;2.80;;
13234;SDS011;6683;48.506;9.050;2023-04-22T05:06:06;2.63;;;2.10;;
13234;SDS011;6683;48.506;9.050;2023-04-22T05:09:09;3.77;;;2.33;;
13234;SDS011;6683;48.506;9.050;2023-04-22T05:12:13;2.97;;;2.67;;
13234;SDS011;6683;48.506;9.050;2023-04-22T05:15:16;2.90;;;2.60;;
13234;SDS011;6683;48.506;9.050;2023-04-22T05:18:18;3.00;;;2.53;;
13234;SDS011;6683;48.506;9.050;2023-04-22T05:21:22;3.37;;;2.53;;
13234;SDS011;6683;48.506;9.050;2023-04-22T05:24:24;2.63;;;2.43;;
13234;SDS011;6683;48.506;9.050;2023-04-22T05:27:28;3.03;;;2.30;;
13234;SDS011;6683;48.506;9.050;2023-04-22T05:30:30;3.03;;;2.20;;
13234;SDS011;6683;48.506;9.050;2023-04-22T05:33:33;2.97;;;2.17;;
13234;SDS011;6683;48.506;9.050;2023-04-22T05:36:35;2.70;;;2.50;;
13234;SDS011;6683;48.506;9.050;2023-04-22T05:39:38;2.53;;;2.30;;
13234;SDS011;6683;48.506;9.050;2023-04-22T05:42:42;3.27;;;2.67;;
13234;SDS011;6683;48.506;9.050;2023-04-22T05:45:45;2.50;;;2.30;;
13234;SDS011;6683;48.506;9.050;2023-04-22T05:48:47;3.90;;;2.43;;
13234;SDS011;6683;48.506;9.050;2023-04-22T05:51:50;2.47;;;2.27;;
13234;SDS011;6683;48.506;9.050;2023-04-22T05:54:53;3.30;;;2.33;;
13234;SDS011;6683;48.506;9.050;2023-04-22T05:57:57;3.60;;;2.83;;
13234;SDS011;6683;48.506;9.050;2023-04-22T06:00:59;2.93;;;2.10;;
13234;SDS011;6683;48.506;9.050;2023-04-22T06:04:02;2.43;;;2.00;;
13234;SDS011;6683;48.506;9.050;2023-04-22T06:07:05;2.77;;;2.50;;
13234;SDS011;6683;48.506;9.050;2023-04-22T06:10:08;2.33;;;2.13;;
13234;SDS011;6683;48.506;9.050;2023-04-22T06:13:12;2.67;;;2.23;;
13234;SDS011;6683;48.506;9.050;2023-04-22T06:16:14;2.67;;;2.43;;
13234;SDS011;6683;48.506;9.050;2023-04-22T06:19:17;2.53;;;2.33;;
13234;SDS011;6683;48.506;9.050;2023-04-22T06:22:20;3.87;;;2.50;;
13234;SDS011;6683;48.506;9.050;2023-04-22T06:25:23;2.87;;;2.60;;
13234;SDS011;6683;48.506;9.050;2023-04-22T06:28:26;3.57;;;2.60;;
13234;SDS011;6683;48.506;9.050;2023-04-22T06:31:28;3.33;;;2.80;;
13234;SDS011;6683;48.506;9.050;2023-04-22T06:34:31;2.50;;;2.30;;
13234;SDS011;6683;48.506;9.050;2023-04-22T06:37:33;2.63;;;2.30;;
13234;SDS011;6683;48.506;9.050;2023-04-22T06:40:36;2.77;;;2.30;;
13234;SDS011;6683;48.506;9.050;2023-04-22T06:43:41;4.40;;;2.37;;
13234;SDS011;6683;48.506;9.050;2023-04-22T06:46:43;2.70;;;2.50;;
13234;SDS011;6683;48.506;9.050;2023-04-22T06:49:45;3.07;;;2.77;;
13234;SDS011;6683;48.506;9.050;2023-04-22T06:52:49;3.20;;;2.90;;
13234;SDS011;6683;48.506;9.050;2023-04-22T06:55:51;3.10;;;2.80;;
13234;SDS011;6683;48.506;9.050;2023-04-22T06:58:56;3.40;;;2.67;;
13234;SDS011;6683;48.506;9.050;2023-04-22T07:01:58;3.90;;;2.93;;
13234;SDS011;6683;48.506;9.050;2023-04-22T07:05:01;3.40;;;3.10;;
13234;SDS011;6683;48.506;9.050;2023-04-22T07:08:04;2.70;;;2.50;;
13234;SDS011;6683;48.506;9.050;2023-04-22T07:11:07;4.93;;;3.17;;
13234;SDS011;6683;48.506;9.050;2023-04-22T07:14:12;3.73;;;3.37;;
13234;SDS011;6683;48.506;9.050;2023-04-22T07:17:14;3.17;;;2.70;;
13234;SDS011;6683;48.506;9.050;2023-04-22T07:20:18;3.23;;;2.87;;
13234;SDS011;6683;48.506;9.050;2023-04-22T07:23:21;3.63;;;2.97;;
13234;SDS011;6683;48.506;9.050;2023-04-22T07:26:23;3.87;;;3.10;;
13234;SDS011;6683;48.506;9.050;2023-04-22T07:29:27;3.17;;;2.80;;
13234;SDS011;6683;48.506;9.050;2023-04-22T07:32:30;3.30;;;3.00;;
13234;SDS011;6683;48.506;9.050;2023-04-22T07:35:32;4.67;;;2.97;;
13234;SDS011;6683;48.506;9.050;2023-04-22T07:38:35;2.77;;;2.53;;
13234;SDS011;6683;48.506;9.050;2023-04-22T07:41:38;4.10;;;2.90;;
13234;SDS011;6683;48.506;9.050;2023-04-22T07:44:41;3.30;;;3.00;;
13234;SDS011;6683;48.506;9.050;2023-04-22T07:47:43;4.53;;;3.00;;
13234;SDS011;6683;48.506;9.050;2023-04-22T07:50:46;2.93;;;2.73;;
13234;SDS011;6683;48.506;9.050;2023-04-22T07:53:49;4.07;;;3.30;;
13234;SDS011;6683;48.506;9.050;2023-04-22T07:56:51;4.23;;;3.20;;
13234;SDS011;6683;48.506;9.050;2023-04-22T07:59:55;3.70;;;3.40;;
13234;SDS011;6683;48.506;9.050;2023-04-22T08:02:57;8.07;;;3.30;;
13234;SDS011;6683;48.506;9.050;2023-04-22T08:06:00;4.57;;;3.37;;
13234;SDS011;6683;48.506;9.050;2023-04-22T08:09:02;4.47;;;2.90;;
13234;SDS011;6683;48.506;9.050;2023-04-22T08:12:05;4.83;;;3.33;;
13234;SDS011;6683;48.506;9.050;2023-04-22T08:15:10;2.93;;;2.67;;
13234;SDS011;6683;48.506;9.050;2023-04-22T08:18:13;3.20;;;2.90;;
13234;SDS011;6683;48.506;9.050;2023-04-22T08:21:15;4.87;;;3.40;;
13234;SDS011;6683;48.506;9.050;2023-04-22T08:24:17;3.93;;;3.00;;
13234;SDS011;6683;48.506;9.050;2023-04-22T08:27:20;3.93;;;3.07;;
13234;SDS011;6683;48.506;9.050;2023-04-22T08:30:24;3.90;;;3.13;;
13234;SDS011;6683;48.506;9.050;2023-04-22T08:33:27;3.53;;;3.23;;
13234;SDS011;6683;48.506;9.050;2023-04-22T08:36:29;3.60;;;3.00;;
13234;SDS011;6683;48.506;9.050;2023-04-22T08:39:32;3.93;;;3.43;;
13234;SDS011;6683;48.506;9.050;2023-04-22T08:42:34;4.47;;;3.07;;
13234;SDS011;6683;48.506;9.050;2023-04-22T08:45:39;2.63;;;2.43;;
13234;SDS011;6683;48.506;9.050;2023-04-22T08:48:43;2.90;;;2.70;;
13234;SDS011;6683;48.506;9.050;2023-04-22T08:51:47;4.10;;;2.97;;
13234;SDS011;6683;48.506;9.050;2023-04-22T08:54:52;2.97;;;2.67;;
13234;SDS011;6683;48.506;9.050;2023-04-22T08:57:54;2.30;;;2.10;;
13234;SDS011;6683;48.506;9.050;2023-04-22T09:00:58;2.50;;;2.10;;
13234;SDS011;6683;48.506;9.050;2023-04-22T09:04:01;2.30;;;2.10;;
13234;SDS011;6683;48.506;9.050;2023-04-22T09:07:04;2.73;;;2.10;;
13234;SDS011;6683;48.506;9.050;2023-04-22T09:10:08;1.67;;;1.57;;
13234;SDS011;6683;48.506;9.050;2023-04-22T09:13:12;2.20;;;1.67;;
13234;SDS011;6683;48.506;9.050;2023-04-22T09:16:16;1.60;;;1.50;;
13234;SDS011;6683;48.506;9.050;2023-04-22T09:19:22;1.93;;;1.43;;
13234;SDS011;6683;48.506;9.050;2023-04-22T09:22:25;2.27;;;1.80;;
13234;SDS011;6683;48.506;9.050;2023-04-22T09:25:29;2.23;;;1.60;;
13234;SDS011;6683;48.506;9.050;2023-04-22T09:28:35;1.73;;;1.63;;
13234;SDS011;6683;48.506;9.050;2023-04-22T09:31:39;1.53;;;1.43;;
13234;SDS011;6683;48.506;9.050;2023-04-22T09:34:44;1.60;;;1.50;;
13234;SDS011;6683;48.506;9.050;2023-04-22T09:37:51;1.63;;;1.53;;
13234;SDS011;6683;48.506;9.050;2023-04-22T09:40:54;2.60;;;1.70;;
13234;SDS011;6683;48.506;9.050;2023-04-22T09:43:58;3.23;;;1.70;;
13234;SDS011;6683;48.506;9.050;2023-04-22T09:47:03;1.57;;;1.40;;
13234;SDS011;6683;48.506;9.050;2023-04-22T09:50:08;1.52;;;1.42;;
13234;SDS011;6683;48.506;9.050;2023-04-22T09:53:12;1.60;;;1.50;;
13234;SDS011;6683;48.506;9.050;2023-04-22T09:56:17;2.10;;;1.58;;
13234;SDS011;6683;48.506;9.050;2023-04-22T09:59:20;1.73;;;1.40;;
13234;SDS011;6683;48.506;9.050;2023-04-22T10:02:28;1.40;;;1.27;;
13234;SDS011;6683;48.506;9.050;2023-04-22T10:05:31;1.77;;;1.67;;
13234;SDS011;6683;48.506;9.050;2023-04-22T10:08:36;1.60;;;1.15;;
13234;SDS011;6683;48.506;9.050;2023-04-22T10:11:39;1.83;;;1.40;;
13234;SDS011;6683;48.506;9.050;2023-04-22T10:14:41;1.20;;;1.10;;
13234;SDS011;6683;48.506;9.050;2023-04-22T10:17:45;1.75;;;1.27;;
13234;SDS011;6683;48.506;9.050;2023-04-22T10:20:48;1.38;;;1.20;;
13234;SDS011;6683;48.506;9.050;2023-04-22T10:23:51;1.52;;;1.42;;
13234;SDS011;6683;48.506;9.050;2023-04-22T10:26:55;1.40;;;1.30;;
13234;SDS011;6683;48.506;9.050;2023-04-22T10:29:58;2.88;;;1.27;;
13234;SDS011;6683;48.506;9.050;2023-04-22T10:36:54;1.30;;;1.20;;
13234;SDS011;6683;48.506;9.050;2023-04-22T10:40:05;1.48;;;1.25;;
13234;SDS011;6683;48.506;9.050;2023-04-22T10:43:11;1.52;;;1.23;;
13234;SDS011;6683;48.506;9.050;2023-04-22T10:50:18;1.20;;;1.10;;
13234;SDS011;6683;48.506;9.050;2023-04-22T10:53:35;1.35;;;1.25;;
13234;SDS011;6683;48.506;9.050;2023-04-22T11:03:40;0.80;;;0.80;;
13234;SDS011;6683;48.506;9.050;2023-04-22T11:06:44;1.27;;;1.17;;
13234;SDS011;6683;48.506;9.050;2023-04-22T11:09:49;1.10;;;1.00;;
13234;SDS011;6683;48.506;9.050;2023-04-22T11:12:52;1.55;;;1.10;;
13234;SDS011;6683;48.506;9.050;2023-04-22T11:15:55;1.60;;;1.17;;
13234;SDS011;6683;48.506;9.050;2023-04-22T11:18:57;1.98;;;1.30;;
13234;SDS011;6683;48.506;9.050;2023-04-22T11:22:02;2.20;;;1.75;;
13234;SDS011;6683;48.506;9.050;2023-04-22T11:25:05;1.10;;;1.00;;
13234;SDS011;6683;48.506;9.050;2023-04-22T11:28:09;2.53;;;1.45;;
13234;SDS011;6683;48.506;9.050;2023-04-22T11:31:11;1.88;;;1.30;;
13234;SDS011;6683;48.506;9.050;2023-04-22T11:34:14;1.05;;;1.00;;
13234;SDS011;6683;48.506;9.050;2023-04-22T11:37:18;1.23;;;1.00;;
13234;SDS011;6683;48.506;9.050;2023-04-22T11:40:22;2.13;;;1.55;;
13234;SDS011;6683;48.506;9.050;2023-04-22T11:43:28;1.95;;;1.02;;
13234;SDS011;6683;48.506;9.050;2023-04-22T11:46:30;1.20;;;1.10;;
13234;SDS011;6683;48.506;9.050;2023-04-22T11:49:37;1.00;;;0.90;;
13234;SDS011;6683;48.506;9.050;2023-04-22T11:52:44;1.60;;;1.20;;
13234;SDS011;6683;48.506;9.050;2023-04-22T11:55:49;1.20;;;1.10;;
13234;SDS011;6683;48.506;9.050;2023-04-22T11:58:52;1.15;;;1.05;;
13234;SDS011;6683;48.506;9.050;2023-04-22T12:01:54;0.90;;;0.90;;
13234;SDS011;6683;48.506;9.050;2023-04-22T12:04:57;1.05;;;1.00;;
13234;SDS011;6683;48.506;9.050;2023-04-22T12:08:02;2.33;;;1.10;;
13234;SDS011;6683;48.506;9.050;2023-04-22T12:11:08;1.33;;;1.10;;
13234;SDS011;6683;48.506;9.050;2023-04-22T12:14:12;1.70;;;1.00;;
13234;SDS011;6683;48.506;9.050;2023-04-22T12:17:15;1.40;;;1.25;;
13234;SDS011;6683;48.506;9.050;2023-04-22T12:20:22;1.70;;;1.13;;
13234;SDS011;6683;48.506;9.050;2023-04-22T12:23:26;2.17;;;1.48;;
13234;SDS011;6683;48.506;9.050;2023-04-22T12:26:29;2.30;;;1.20;;
13234;SDS011;6683;48.506;9.050;2023-04-22T12:29:32;1.13;;;1.05;;
13234;SDS011;6683;48.506;9.050;2023-04-22T12:32:35;1.55;;;1.13;;
13234;SDS011;6683;48.506;9.050;2023-04-22T12:35:37;1.77;;;1.15;;
13234;SDS011;6683;48.506;9.050;2023-04-22T12:38:41;1.35;;;1.25;;
13234;SDS011;6683;48.506;9.050;2023-04-22T12:41:43;1.40;;;1.30;;
13234;SDS011;6683;48.506;9.050;2023-04-22T12:44:50;1.20;;;1.10;;
13234;SDS011;6683;48.506;9.050;2023-04-22T12:47:52;2.45;;;1.20;;
13234;SDS011;6683;48.506;9.050;2023-04-22T12:50:54;2.17;;;1.10;;
13234;SDS011;6683;48.506;9.050;2023-04-22T12:53:58;1.15;;;0.90;;
13234;SDS011;6683;48.506;9.050;2023-04-22T12:57:01;1.05;;;1.00;;
13234;SDS011;6683;48.506;9.050;2023-04-22T13:00:04;1.30;;;1.17;;
13234;SDS011;6683;48.506;9.050;2023-04-22T13:03:13;1.13;;;1.02;;
13234;SDS011;6683;48.506;9.050;2023-04-22T13:06:15;1.55;;;0.90;;
13234;SDS011;6683;48.506;9.050;2023-04-22T13:09:18;1.55;;;0.90;;
13234;SDS011;6683;48.506;9.050;2023-04-22T13:12:21;2.65;;;1.10;;
13234;SDS011;6683;48.506;9.050;2023-04-22T13:15:23;1.17;;;1.02;;
13234;SDS011;6683;48.506;9.050;2023-04-22T13:18:29;1.58;;;1.23;;
13234;SDS011;6683;48.506;9.050;2023-04-22T13:21:31;1.65;;;1.00;;
13234;SDS011;6683;48.506;9.050;2023-04-22T13:24:35;1.25;;;1.00;;
13234;SDS011;6683;48.506;9.050;2023-04-22T13:27:37;1.10;;;1.00;;
13234;SDS011;6683;48.506;9.050;2023-04-22T13:30:39;1.33;;;1.20;;
13234;SDS011;6683;48.506;9.050;2023-04-22T13:33:42;1.42;;;1.20;;
13234;SDS011;6683;48.506;9.050;2023-04-22T13:36:46;2.05;;;1.42;;
13234;SDS011;6683;48.506;9.050;2023-04-22T13:39:50;1.77;;;1.20;;
13234;SDS011;6683;48.506;9.050;2023-04-22T13:42:52;1.00;;;0.90;;
13234;SDS011;6683;48.506;9.050;2023-04-22T13:45:54;1.38;;;1.02;;
13234;SDS011;6683;48.506;9.050;2023-04-22T13:48:56;1.30;;;1.05;;
13234;SDS011;6683;48.506;9.050;2023-04-22T13:51:59;2.30;;;1.35;;
13234;SDS011;6683;48.506;9.050;2023-04-22T13:55:03;1.30;;;1.20;;
13234;SDS011;6683;48.506;9.050;2023-04-22T13:58:06;1.92;;;1.13;;
13234;SDS011;6683;48.506;9.050;2023-04-22T14:01:08;2.08;;;1.27;;
13234;SDS011;6683;48.506;9.050;2023-04-22T14:04:10;1.10;;;1.00;;
13234;SDS011;6683;48.506;9.050;2023-04-22T14:07:13;2.63;;;1.27;;
13234;SDS011;6683;48.506;9.050;2023-04-22T14:10:17;1.73;;;1.23;;
13234;SDS011;6683;48.506;9.050;2023-04-22T14:13:21;2.55;;;1.20;;
13234;SDS011;6683;48.506;9.050;2023-04-22T14:16:23;1.65;;;0.95;;
13234;SDS011;6683;48.506;9.050;2023-04-22T14:19:26;2.40;;;1.23;;
13234;SDS011;6683;48.506;9.050;2023-04-22T14:22:29;2.30;;;1.00;;
13234;SDS011;6683;48.506;9.050;2023-04-22T14:25:32;1.10;;;1.00;;
13234;SDS011;6683;48.506;9.050;2023-04-22T14:28:35;2.08;;;1.10;;
13234;SDS011;6683;48.506;9.050;2023-04-22T14:31:38;3.13;;;1.13;;
13234;SDS011;6683;48.506;9.050;2023-04-22T14:34:41;1.10;;;1.00;;
13234;SDS011;6683;48.506;9.050;2023-04-22T14:37:44;2.03;;;0.90;;
13234;SDS011;6683;48.506;9.050;2023-04-22T14:40:48;1.20;;;1.10;;
13234;SDS011;6683;48.506;9.050;2023-04-22T14:43:51;1.33;;;1.20;;
13234;SDS011;6683;48.506;9.050;2023-04-22T14:46:53;1.65;;;1.13;;
13234;SDS011;6683;48.506;9.050;2023-04-22T14:49:55;2.50;;;1.30;;
13234;SDS011;6683;48.506;9.050;2023-04-22T14:52:58;2.35;;;1.10;;
13234;SDS011;6683;48.506;9.050;2023-04-22T14:56:02;1.55;;;1.33;;
13234;SDS011;6683;48.506;9.050;2023-04-22T14:59:04;1.23;;;1.13;;
13234;SDS011;6683;48.506;9.050;2023-04-22T15:02:07;2.30;;;1.40;;
13234;SDS011;6683;48.506;9.050;2023-04-22T15:05:14;1.95;;;1.40;;
13234;SDS011;6683;48.506;9.050;2023-04-22T15:08:17;2.10;;;1.10;;
13234;SDS011;6683;48.506;9.050;2023-04-22T15:11:20;1.90;;;1.40;;
13234;SDS011;6683;48.506;9.050;2023-04-22T15:14:22;1.73;;;1.00;;
13234;SDS011;6683;48.506;9.050;2023-04-22T15:17:24;2.00;;;1.20;;
13234;SDS011;6683;48.506;9.050;2023-04-22T15:20:29;1.63;;;1.17;;
13234;SDS011;6683;48.506;9.050;2023-04-22T15:23:32;2.75;;;1.40;;
13234;SDS011;6683;48.506;9.050;2023-04-22T15:26:36;1.45;;;1.30;;
13234;SDS011;6683;48.506;9.050;2023-04-22T15:29:39;2.78;;;1.27;;
13234;SDS011;6683;48.506;9.050;2023-04-22T15:32:45;5.40;;;1.45;;
13234;SDS011;6683;48.506;9.050;2023-04-22T15:35:47;1.92;;;1.23;;
13234;SDS011;6683;48.506;9.050;2023-04-22T15:38:52;1.52;;;1.42;;
13234;SDS011;6683;48.506;9.050;2023-04-22T15:41:57;1.58;;;1.48;;
13234;SDS011;6683;48.506;9.050;2023-04-22T15:44:59;3.28;;;1.60;;
13234;SDS011;6683;48.506;9.050;2023-04-22T15:48:01;1.90;;;1.48;;
13234;SDS011;6683;48.506;9.050;2023-04-22T15:51:04;2.30;;;1.40;;
13234;SDS011;6683;48.506;9.050;2023-04-22T15:54:07;2.53;;;1.50;;
13234;SDS011;6683;48.506;9.050;2023-04-22T15:57:11;2.33;;;1.52;;
13234;SDS011;6683;48.506;9.050;2023-04-22T16:00:13;3.03;;;1.83;;
13234;SDS011;6683;48.506;9.050;2023-04-22T16:03:16;2.60;;;1.73;;
13234;SDS011;6683;48.506;9.050;2023-04-22T16:06:18;1.60;;;1.30;;
13234;SDS011;6683;48.506;9.050;2023-04-22T16:09:20;2.25;;;1.75;;
13234;SDS011;6683;48.506;9.050;2023-04-22T16:12:24;3.13;;;1.42;;
13234;SDS011;6683;48.506;9.050;2023-04-22T16:15:26;1.75;;;1.30;;
13234;SDS011;6683;48.506;9.050;2023-04-22T16:18:29;1.85;;;1.40;;
13234;SDS011;6683;48.506;9.050;2023-04-22T16:21:32;2.08;;;1.45;;
13234;SDS011;6683;48.506;9.050;2023-04-22T16:24:35;1.67;;;1.33;;
13234;SDS011;6683;48.506;9.050;2023-04-22T16:27:39;2.30;;;1.50;;
13234;SDS011;6683;48.506;9.050;2023-04-22T16:30:41;2.15;;;1.20;;
13234;SDS011;6683;48.506;9.050;2023-04-22T16:33:43;1.73;;;1.52;;
13234;SDS011;6683;48.506;9.050;2023-04-22T16:36:46;1.65;;;1.35;;
13234;SDS011;6683;48.506;9.050;2023-04-22T16:39:48;5.30;;;1.70;;
13234;SDS011;6683;48.506;9.050;2023-04-22T16:42:52;2.00;;;1.30;;
13234;SDS011;6683;48.506;9.050;2023-04-22T16:45:55;1.80;;;1.27;;
13234;SDS011;6683;48.506;9.050;2023-04-22T16:48:58;1.70;;;1.42;;
13234;SDS011;6683;48.506;9.050;2023-04-22T16:52:00;3.10;;;1.93;;
13234;SDS011;6683;48.506;9.050;2023-04-22T16:55:03;2.67;;;1.40;;
13234;SDS011;6683;48.506;9.050;2023-04-22T16:58:08;2.07;;;1.40;;
13234;SDS011;6683;48.506;9.050;2023-04-22T17:01:11;1.23;;;1.10;;
13234;SDS011;6683;48.506;9.050;2023-04-22T17:04:13;1.70;;;1.50;;
13234;SDS011;6683;48.506;9.050;2023-04-22T17:07:15;2.17;;;1.40;;
13234;SDS011;6683;48.506;9.050;2023-04-22T17:10:18;1.77;;;1.33;;
13234;SDS011;6683;48.506;9.050;2023-04-22T17:13:21;2.73;;;1.50;;
13234;SDS011;6683;48.506;9.050;2023-04-22T17:16:24;1.93;;;1.50;;
13234;SDS011;6683;48.506;9.050;2023-04-22T17:19:27;1.90;;;1.70;;
13234;SDS011;6683;48.506;9.050;2023-04-22T17:22:29;1.90;;;1.20;;
13234;SDS011;6683;48.506;9.050;2023-04-22T17:25:32;1.50;;;1.37;;
13234;SDS011;6683;48.506;9.050;2023-04-22T17:28:36;1.70;;;1.30;;
13234;SDS011;6683;48.506;9.050;2023-04-22T17:31:38;1.37;;;1.27;;
13234;SDS011;6683;48.506;9.050;2023-04-22T17:34:41;2.50;;;1.70;;
13234;SDS011;6683;48.506;9.050;2023-04-22T17:37:43;2.30;;;2.00;;
13234;SDS011;6683;48.506;9.050;2023-04-22T17:40:46;1.60;;;1.30;;
13234;SDS011;6683;48.506;9.050;2023-04-22T17:43:50;2.60;;;1.93;;
13234;SDS011;6683;48.506;9.050;2023-04-22T17:46:52;3.57;;;2.30;;
13234;SDS011;6683;48.506;9.050;2023-04-22T17:49:55;2.50;;;1.40;;
13234;SDS011;6683;48.506;9.050;2023-04-22T17:52:57;1.40;;;1.30;;
13234;SDS011;6683;48.506;9.050;2023-04-22T17:56:00;1.87;;;1.57;;
13234;SDS011;6683;48.506;9.050;2023-04-22T17:59:04;1.40;;;1.30;;
13234;SDS011;6683;48.506;9.050;2023-04-22T18:02:06;2.57;;;1.37;;
13234;SDS011;6683;48.506;9.050;2023-04-22T18:05:10;1.37;;;1.23;;
13234;SDS011;6683;48.506;9.050;2023-04-22T18:08:13;1.90;;;1.70;;
13234;SDS011;6683;48.506;9.050;2023-04-22T18:11:15;1.40;;;1.30;;
13234;SDS011;6683;48.506;9.050;2023-04-22T18:14:19;4.40;;;1.50;;
13234;SDS011;6683;48.506;9.050;2023-04-22T18:17:21;1.30;;;1.20;;
13234;SDS011;6683;48.506;9.050;2023-04-22T18:20:23;1.40;;;1.10;;
13234;SDS011;6683;48.506;9.050;2023-04-22T18:23:27;2.20;;;1.60;;
13234;SDS011;6683;48.506;9.050;2023-04-22T18:26:29;2.50;;;1.50;;
13234;SDS011;6683;48.506;9.050;2023-04-22T18:29:33;2.10;;;1.90;;
13234;SDS011;6683;48.506;9.050;2023-04-22T18:32:35;1.40;;;1.23;;
13234;SDS011;6683;48.506;9.050;2023-04-22T18:35:38;1.40;;;1.30;;
13234;SDS011;6683;48.506;9.050;2023-04-22T18:38:41;2.83;;;1.60;;
13234;SDS011;6683;48.506;9.050;2023-04-22T18:41:43;2.03;;;1.70;;
13234;SDS011;6683;48.506;9.050;2023-04-22T18:44:47;1.90;;;1.40;;
13234;SDS011;6683;48.506;9.050;2023-04-22T18:47:49;2.17;;;1.70;;
13234;SDS011;6683;48.506;9.050;2023-04-22T18:50:52;1.50;;;1.40;;
13234;SDS011;6683;48.506;9.050;2023-04-22T18:53:55;2.20;;;1.30;;